createdAt,value
2018-03-06T00:00:07.561Z,29.90
2018-03-06T00:02:36.858Z,27.73
2018-03-06T00:05:05.159Z,29.02
2018-03-06T00:07:33.413Z,29.63
2018-03-06T00:10:02.328Z,29.35
2018-03-06T00:12:30.739Z,29.95
2018-03-06T00:14:59.963Z,29.85
2018-03-06T00:17:28.253Z,30.00
2018-03-06T00:19:56.564Z,30.58
2018-03-06T00:22:25.735Z,30.48
2018-03-06T00:24:54.076Z,32.38
2018-03-06T00:27:22.367Z,32.58
2018-03-06T00:29:50.780Z,30.73
2018-03-06T00:32:19.050Z,31.92
2018-03-06T00:34:47.324Z,29.90
2018-03-06T00:37:15.597Z,30.12
2018-03-06T00:39:43.845Z,31.20
2018-03-06T00:42:12.141Z,30.90
2018-03-06T00:44:40.396Z,31.90
2018-03-06T00:47:09.538Z,31.02
2018-03-06T00:49:37.781Z,32.05
2018-03-06T00:52:06.051Z,30.85
2018-03-06T00:54:34.319Z,33.00
2018-03-06T00:57:02.601Z,31.65
2018-03-06T00:59:30.901Z,37.05
2018-03-06T01:02:00.061Z,31.23
2018-03-06T01:04:28.920Z,32.65
2018-03-06T01:06:57.969Z,30.58
2018-03-06T01:09:26.374Z,33.83
2018-03-06T01:11:54.625Z,30.80
2018-03-06T01:14:22.932Z,36.53
2018-03-06T01:16:51.169Z,33.75
2018-03-06T01:19:19.473Z,32.92
2018-03-06T01:21:47.919Z,32.85
2018-03-06T01:24:16.263Z,34.63
2018-03-06T01:26:44.552Z,36.17
2018-03-06T01:29:12.814Z,34.42
2018-03-06T01:31:40.381Z,34.40
2018-03-06T01:34:08.663Z,35.00
2018-03-06T01:36:36.952Z,37.22
2018-03-06T01:39:05.349Z,36.20
2018-03-06T01:41:33.657Z,34.60
2018-03-06T01:44:02.836Z,37.35
2018-03-06T01:46:31.896Z,36.80
2018-03-06T01:49:00.182Z,37.97
2018-03-06T01:54:36.804Z,36.78
2018-03-06T01:57:05.946Z,36.83
2018-03-06T01:59:34.204Z,36.78
2018-03-06T02:02:02.474Z,38.90
2018-03-06T02:04:30.877Z,39.47
2018-03-06T02:07:00.239Z,41.72
2018-03-06T02:09:28.509Z,39.83
2018-03-06T02:11:59.133Z,39.42
2018-03-06T02:14:29.163Z,41.28
2018-03-06T02:16:58.286Z,37.70
2018-03-06T02:19:26.617Z,38.08
2018-03-06T02:21:55.702Z,39.67
2018-03-06T02:24:23.982Z,37.97
2018-03-06T02:26:54.231Z,41.08
2018-03-06T02:31:57.901Z,42.92
2018-03-06T02:34:26.172Z,39.00
2018-03-06T02:36:54.419Z,41.40
2018-03-06T02:39:23.596Z,41.05
2018-03-06T02:41:51.870Z,40.85
2018-03-06T02:44:20.808Z,42.67
2018-03-06T02:46:49.155Z,38.67
2018-03-06T02:49:18.347Z,37.92
2018-03-06T02:51:46.622Z,37.30
2018-03-06T02:54:14.947Z,37.55
2018-03-06T02:56:44.719Z,38.17
2018-03-06T02:59:12.980Z,36.00
2018-03-06T03:01:41.954Z,41.72
2018-03-06T03:04:10.210Z,40.20
2018-03-06T03:06:38.506Z,43.75
2018-03-06T03:09:06.754Z,43.45
2018-03-06T03:11:35.832Z,42.72
2018-03-06T03:14:04.135Z,41.47
2018-03-06T03:16:33.174Z,43.50
2018-03-06T03:19:01.449Z,44.65
2018-03-06T03:21:29.708Z,46.05
2018-03-06T03:23:57.977Z,45.15
2018-03-06T03:26:26.230Z,42.70
2018-03-06T03:28:55.280Z,47.45
2018-03-06T03:31:23.529Z,43.67
2018-03-06T03:33:51.784Z,43.33
2018-03-06T03:36:20.058Z,44.35
2018-03-06T03:38:49.806Z,44.90
2018-03-06T03:41:18.090Z,47.28
2018-03-06T03:43:46.458Z,45.03
2018-03-06T03:46:14.751Z,42.90
2018-03-06T03:48:43.023Z,42.15
2018-03-06T03:51:11.347Z,40.95
2018-03-06T03:53:40.570Z,39.50
2018-03-06T03:56:08.836Z,40.70
2018-03-06T03:58:37.123Z,41.92
2018-03-06T04:01:05.374Z,41.78
2018-03-06T04:03:33.664Z,40.88
2018-03-06T04:06:03.219Z,40.53
2018-03-06T04:08:31.595Z,38.58
2018-03-06T04:11:00.005Z,40.63
2018-03-06T04:13:28.305Z,41.70
2018-03-06T04:15:56.572Z,44.38
2018-03-06T04:18:24.959Z,43.60
2018-03-06T04:20:53.237Z,42.20
2018-03-06T04:23:21.532Z,40.70
2018-03-06T04:25:49.815Z,43.78
2018-03-06T04:28:20.160Z,41.42
2018-03-06T04:30:49.206Z,41.40
2018-03-06T04:33:17.473Z,40.92
2018-03-06T04:35:45.996Z,42.10
2018-03-06T04:38:14.256Z,40.75
2018-03-06T04:40:42.528Z,43.47
2018-03-06T04:43:10.780Z,43.95
2018-03-06T04:45:39.035Z,41.60
2018-03-06T04:48:08.013Z,42.62
2018-03-06T04:50:37.063Z,41.72
2018-03-06T04:53:05.370Z,38.90
2018-03-06T04:55:34.517Z,40.85
2018-03-06T04:58:02.796Z,42.47
2018-03-06T05:00:31.231Z,41.28
2018-03-06T05:03:00.330Z,39.92
2018-03-06T05:05:28.619Z,40.12
2018-03-06T05:07:56.939Z,42.28
2018-03-06T05:10:26.183Z,40.97
2018-03-06T05:12:54.545Z,42.40
2018-03-06T05:15:23.639Z,40.58
2018-03-06T05:17:52.737Z,38.70
2018-03-06T05:20:21.132Z,41.13
2018-03-06T05:22:49.880Z,40.35
2018-03-06T05:25:18.498Z,40.75
2018-03-06T05:27:46.755Z,40.67
2018-03-06T05:30:15.889Z,40.10
2018-03-06T05:32:44.479Z,39.75
2018-03-06T05:35:12.758Z,38.75
2018-03-06T05:37:41.024Z,41.37
2018-03-06T05:40:09.437Z,38.83
2018-03-06T05:42:37.742Z,40.53
2018-03-06T05:45:07.070Z,38.50
2018-03-06T05:47:35.351Z,38.95
2018-03-06T05:50:03.799Z,39.33
2018-03-06T05:52:32.834Z,40.12
2018-03-06T05:55:01.106Z,40.38
2018-03-06T05:57:29.364Z,39.72
2018-03-06T05:59:57.870Z,41.88
2018-03-06T06:02:26.151Z,40.63
2018-03-06T06:04:55.931Z,42.08
2018-03-06T06:07:24.224Z,38.42
2018-03-06T06:09:53.447Z,42.67
2018-03-06T06:12:21.923Z,40.90
2018-03-06T06:14:50.999Z,40.10
2018-03-06T06:17:19.234Z,41.45
2018-03-06T06:19:48.407Z,45.75
2018-03-06T06:22:18.255Z,43.33
2018-03-06T06:24:48.066Z,43.55
2018-03-06T06:27:16.349Z,42.72
2018-03-06T06:29:44.602Z,40.55
2018-03-06T06:32:14.633Z,43.75
2018-03-06T06:34:42.913Z,42.00
2018-03-06T06:37:11.239Z,41.53
2018-03-06T06:39:41.142Z,43.45
2018-03-06T06:42:09.428Z,41.72
2018-03-06T06:44:38.490Z,40.58
2018-03-06T06:47:06.760Z,41.45
2018-03-06T06:49:35.033Z,40.40
2018-03-06T06:52:04.188Z,37.53
2018-03-06T06:54:32.519Z,38.72
2018-03-06T06:57:00.924Z,38.42
2018-03-06T06:59:30.060Z,39.97
2018-03-06T07:01:58.385Z,41.35
2018-03-06T07:04:26.770Z,39.63
2018-03-06T07:06:55.067Z,39.45
2018-03-06T07:09:24.219Z,38.95
2018-03-06T07:11:52.510Z,37.22
2018-03-06T07:14:21.669Z,37.70
2018-03-06T07:16:50.553Z,43.03
2018-03-06T07:19:18.834Z,40.97
2018-03-06T07:21:50.931Z,40.00
2018-03-06T07:24:19.273Z,36.53
2018-03-06T07:26:48.193Z,40.22
2018-03-06T07:29:16.466Z,40.88
2018-03-06T07:31:46.304Z,39.33
2018-03-06T07:34:15.598Z,41.30
2018-03-06T07:36:47.631Z,40.38
2018-03-06T07:39:15.991Z,40.50
2018-03-06T07:41:46.915Z,45.03
2018-03-06T07:44:15.141Z,37.35
2018-03-06T07:46:43.390Z,38.50
2018-03-06T07:49:11.911Z,37.60
2018-03-06T07:51:40.939Z,37.33
2018-03-06T07:54:09.215Z,35.75
2018-03-06T07:56:38.831Z,33.55
2018-03-06T07:59:07.370Z,35.63
2018-03-06T08:01:35.774Z,40.65
2018-03-06T08:04:04.251Z,37.63
2018-03-06T08:06:33.766Z,36.92
2018-03-06T08:09:02.156Z,37.70
2018-03-06T08:11:31.358Z,38.00
2018-03-06T08:13:59.980Z,38.45
2018-03-06T08:16:28.372Z,39.30
2018-03-06T08:18:58.578Z,38.13
2018-03-06T08:21:28.954Z,36.47
2018-03-06T08:23:57.244Z,37.53
2018-03-06T08:26:27.106Z,35.60
2018-03-06T08:28:55.604Z,36.95
2018-03-06T08:31:24.663Z,35.95
2018-03-06T08:33:54.023Z,38.28
2018-03-06T08:36:22.486Z,36.63
2018-03-06T08:38:50.979Z,39.97
2018-03-06T08:41:20.759Z,38.70
2018-03-06T08:43:50.400Z,42.10
2018-03-06T08:46:18.675Z,38.45
2018-03-06T08:48:46.936Z,37.83
2018-03-06T08:51:15.403Z,36.40
2018-03-06T08:53:43.666Z,38.92
2018-03-06T08:56:11.974Z,39.50
2018-03-06T08:58:40.940Z,40.25
2018-03-06T09:01:09.255Z,37.83
2018-03-06T09:03:38.426Z,41.80
2018-03-06T09:06:06.713Z,40.78
2018-03-06T09:08:35.814Z,41.13
2018-03-06T09:11:04.112Z,42.28
2018-03-06T09:13:32.419Z,42.45
2018-03-06T09:16:01.449Z,40.88
2018-03-06T09:18:29.751Z,39.17
2018-03-06T09:20:58.011Z,44.20
2018-03-06T09:23:26.337Z,42.08
2018-03-06T09:25:54.840Z,40.42
2018-03-06T09:28:23.100Z,42.08
2018-03-06T09:30:52.462Z,42.25
2018-03-06T09:33:20.724Z,43.20
2018-03-06T09:35:49.001Z,41.35
2018-03-06T09:38:17.308Z,41.55
2018-03-06T09:40:46.353Z,42.25
2018-03-06T09:43:14.616Z,42.33
2018-03-06T09:45:42.973Z,43.00
2018-03-06T09:48:12.076Z,42.40
2018-03-06T09:50:40.334Z,43.70
2018-03-06T09:53:08.654Z,43.45
2018-03-06T09:55:37.053Z,39.35
2018-03-06T09:58:05.518Z,42.22
2018-03-06T10:00:33.879Z,40.90
2018-03-06T10:03:02.588Z,40.42
2018-03-06T10:05:30.718Z,44.03
2018-03-06T10:07:58.998Z,42.45
2018-03-06T10:10:27.286Z,44.92
2018-03-06T10:12:55.733Z,46.00
2018-03-06T10:15:24.014Z,44.55
2018-03-06T10:17:52.405Z,45.78
2018-03-06T10:20:20.700Z,42.65
2018-03-06T10:22:49.239Z,46.37
2018-03-06T10:25:17.627Z,43.70
2018-03-06T10:27:45.962Z,42.72
2018-03-06T10:30:14.249Z,44.70
2018-03-06T10:32:42.765Z,45.17
2018-03-06T10:35:11.090Z,43.92
2018-03-06T10:37:39.358Z,45.90
2018-03-06T10:40:07.803Z,44.90
2018-03-06T10:42:36.191Z,45.75
2018-03-06T10:45:04.734Z,46.65
2018-03-06T10:47:34.773Z,43.72
2018-03-06T10:50:03.073Z,43.60
2018-03-06T10:52:31.363Z,47.50
2018-03-06T10:54:59.712Z,47.15
2018-03-06T10:57:28.013Z,46.42
2018-03-06T10:59:56.275Z,47.25
2018-03-06T11:02:32.153Z,45.67
2018-03-06T11:05:01.802Z,46.70
2018-03-06T11:07:31.912Z,47.45
2018-03-06T11:10:00.414Z,46.37
2018-03-06T11:12:28.964Z,46.15
2018-03-06T11:14:58.030Z,47.38
2018-03-06T11:17:26.569Z,46.03
2018-03-06T11:19:54.850Z,48.08
2018-03-06T11:22:23.106Z,47.08
2018-03-06T11:24:51.449Z,47.10
2018-03-06T11:27:20.772Z,45.90
2018-03-06T11:29:49.311Z,47.35
2018-03-06T11:32:18.377Z,48.13
2018-03-06T11:34:46.644Z,45.38
2018-03-06T11:37:15.070Z,49.00
2018-03-06T11:39:43.552Z,47.17
2018-03-06T11:42:11.904Z,45.10
2018-03-06T11:44:42.122Z,46.00
2018-03-06T11:47:10.527Z,48.15
2018-03-06T11:49:38.827Z,48.85
2018-03-06T11:52:07.136Z,45.78
2018-03-06T11:54:35.619Z,46.83
2018-03-06T11:57:05.415Z,47.92
2018-03-06T11:59:33.699Z,47.25
2018-03-06T12:02:02.096Z,48.92
2018-03-06T12:04:30.359Z,47.40
2018-03-06T12:06:58.794Z,50.63
2018-03-06T12:09:27.209Z,49.83
2018-03-06T12:11:55.524Z,48.13
2018-03-06T12:14:24.543Z,50.70
2018-03-06T12:16:53.584Z,50.20
2018-03-06T12:19:22.568Z,49.90
2018-03-06T12:21:50.860Z,47.08
2018-03-06T12:24:19.241Z,49.67
2018-03-06T12:26:48.620Z,49.60
2018-03-06T12:29:16.968Z,48.95
2018-03-06T12:31:45.401Z,49.58
2018-03-06T12:34:13.709Z,49.60
2018-03-06T12:36:42.834Z,50.10
2018-03-06T12:39:13.276Z,47.03
2018-03-06T12:41:41.642Z,48.10
2018-03-06T12:44:09.907Z,49.05
2018-03-06T12:46:40.449Z,52.42
2018-03-06T12:49:08.765Z,51.70
2018-03-06T12:51:37.021Z,49.80
2018-03-06T12:54:05.337Z,48.90
2018-03-06T12:56:34.618Z,48.45
2018-03-06T12:59:02.944Z,51.33
2018-03-06T13:01:31.220Z,53.67
2018-03-06T13:03:59.570Z,47.88
2018-03-06T13:06:27.946Z,48.72
2018-03-06T13:08:57.007Z,47.28
2018-03-06T13:11:25.651Z,47.85
2018-03-06T13:13:55.751Z,52.15
2018-03-06T13:16:24.078Z,50.08
2018-03-06T13:18:52.376Z,50.47
2018-03-06T13:21:21.435Z,48.55
2018-03-06T13:23:49.786Z,47.28
2018-03-06T13:26:20.915Z,46.97
2018-03-06T13:28:49.363Z,48.10
2018-03-06T13:31:17.683Z,48.50
2018-03-06T13:33:47.370Z,45.55
2018-03-06T13:36:17.586Z,44.40
2018-03-06T13:38:46.241Z,46.85
2018-03-06T13:41:17.093Z,44.85
2018-03-06T13:43:46.255Z,46.20
2018-03-06T13:46:20.168Z,43.85
2018-03-06T13:48:50.711Z,47.42
2018-03-06T13:51:19.147Z,47.90
2018-03-06T13:53:47.484Z,45.88
2018-03-06T13:56:15.806Z,47.83
2018-03-06T13:58:45.049Z,44.33
2018-03-06T14:01:13.610Z,46.85
2018-03-06T14:03:41.876Z,46.40
2018-03-06T14:06:10.195Z,43.65
2018-03-06T14:08:40.071Z,44.00
2018-03-06T14:11:08.343Z,49.22
2018-03-06T14:13:36.653Z,47.17
2018-03-06T14:16:06.096Z,43.87
2018-03-06T14:18:35.213Z,40.78
2018-03-06T14:21:03.672Z,40.38
2018-03-06T14:23:31.980Z,39.78
2018-03-06T14:26:00.319Z,39.40
2018-03-06T14:28:29.241Z,37.70
2018-03-06T14:30:57.523Z,39.80
2018-03-06T14:33:26.796Z,42.05
2018-03-06T14:35:56.212Z,41.30
2018-03-06T14:38:24.554Z,41.03
2018-03-06T14:40:53.077Z,39.08
2018-03-06T14:43:21.519Z,40.65
2018-03-06T14:45:50.963Z,41.35
2018-03-06T14:48:19.510Z,42.20
2018-03-06T14:50:47.878Z,40.50
2018-03-06T14:53:16.276Z,36.67
2018-03-06T14:55:44.606Z,39.58
2018-03-06T14:58:13.406Z,38.78
2018-03-06T15:00:41.753Z,40.28
2018-03-06T15:03:10.897Z,39.25
2018-03-06T15:05:39.193Z,38.22
2018-03-06T15:08:07.624Z,37.72
2018-03-06T15:10:36.622Z,41.05
2018-03-06T15:13:05.021Z,37.92
2018-03-06T15:15:33.679Z,39.92
2018-03-06T15:18:02.318Z,39.45
2018-03-06T15:20:30.687Z,42.15
2018-03-06T15:22:59.094Z,43.20
2018-03-06T15:25:27.700Z,42.35
2018-03-06T15:27:57.769Z,43.30
2018-03-06T15:30:26.053Z,42.30
2018-03-06T15:32:54.904Z,43.00
2018-03-06T15:35:23.315Z,41.07
2018-03-06T15:37:52.061Z,39.95
2018-03-06T15:40:20.792Z,40.63
2018-03-06T15:42:49.217Z,39.33
2018-03-06T15:45:18.047Z,42.17
2018-03-06T15:47:46.436Z,40.20
2018-03-06T15:50:14.972Z,42.33
2018-03-06T15:52:43.265Z,40.28
2018-03-06T15:55:12.169Z,41.90
2018-03-06T15:57:40.428Z,41.88
2018-03-06T16:00:09.136Z,40.65
2018-03-06T16:02:37.439Z,40.70
2018-03-06T16:05:06.508Z,39.80
2018-03-06T16:07:34.805Z,36.90
2018-03-06T16:10:04.874Z,38.88
2018-03-06T16:12:33.157Z,41.25
2018-03-06T16:15:02.272Z,38.75
2018-03-06T16:17:30.624Z,42.03
2018-03-06T16:19:58.901Z,39.67
2018-03-06T16:22:27.195Z,40.90
2018-03-06T16:24:55.750Z,42.25
2018-03-06T16:27:24.794Z,38.45
2018-03-06T16:29:54.143Z,42.42
2018-03-06T16:32:22.435Z,39.67
2018-03-06T16:34:51.427Z,40.63
2018-03-06T16:37:19.717Z,41.05
2018-03-06T16:39:50.216Z,40.90
2018-03-06T16:42:18.504Z,41.25
2018-03-06T16:44:46.923Z,43.40
2018-03-06T16:47:16.248Z,42.47
2018-03-06T16:49:44.510Z,39.65
2018-03-06T16:52:14.296Z,40.83
2018-03-06T16:54:42.581Z,42.22
2018-03-06T16:57:11.809Z,43.20
2018-03-06T16:59:40.116Z,44.17
2018-03-06T17:02:08.412Z,42.22
2018-03-06T17:04:36.712Z,41.13
2018-03-06T17:07:06.576Z,40.83
2018-03-06T17:09:34.864Z,40.50
2018-03-06T17:12:03.132Z,39.80
2018-03-06T17:14:31.452Z,39.35
2018-03-06T17:17:05.812Z,39.97
2018-03-06T17:19:34.084Z,40.47
2018-03-06T17:22:02.336Z,38.58
2018-03-06T17:24:30.621Z,40.38
2018-03-06T17:26:58.894Z,40.45
2018-03-06T17:29:28.084Z,41.63
2018-03-06T17:31:56.352Z,37.80
2018-03-06T17:34:24.752Z,38.85
2018-03-06T17:36:53.089Z,40.38
2018-03-06T17:39:24.870Z,41.88
2018-03-06T17:41:53.376Z,38.63
2018-03-06T17:44:21.715Z,41.70
2018-03-06T17:46:50.034Z,41.05
2018-03-06T17:49:18.367Z,42.78
2018-03-06T17:51:46.864Z,39.88
2018-03-06T17:54:15.130Z,38.47
2018-03-06T17:56:43.739Z,39.60
2018-03-06T17:59:12.008Z,38.22
2018-03-06T18:01:40.444Z,38.35
2018-03-06T18:04:09.611Z,37.65
2018-03-06T18:06:37.953Z,40.60
2018-03-06T18:09:06.429Z,38.50
2018-03-06T18:11:34.827Z,39.13
2018-03-06T18:14:03.104Z,38.63
2018-03-06T18:16:31.441Z,41.90
2018-03-06T18:18:59.798Z,39.83
2018-03-06T18:21:29.598Z,39.83
2018-03-06T18:23:58.712Z,41.88
2018-03-06T18:26:27.781Z,39.75
2018-03-06T18:28:57.474Z,41.10
2018-03-06T18:31:26.045Z,38.72
2018-03-06T18:33:54.719Z,42.20
2018-03-06T18:36:23.918Z,41.35
2018-03-06T18:38:52.197Z,41.50
2018-03-06T18:41:20.871Z,41.95
2018-03-06T18:43:49.377Z,42.97
2018-03-06T18:46:17.636Z,43.40
2018-03-06T18:48:46.525Z,40.38
2018-03-06T18:51:14.900Z,38.33
2018-03-06T18:53:44.147Z,37.85
2018-03-06T18:56:13.823Z,37.22
2018-03-06T18:58:43.394Z,34.33
2018-03-06T19:04:58.351Z,32.97
2018-03-06T19:07:27.456Z,31.60
2018-03-06T19:09:56.804Z,33.08
2018-03-06T19:12:26.500Z,31.05
2018-03-06T19:14:56.395Z,28.17
2018-03-06T19:17:26.082Z,29.63
2018-03-06T19:19:55.036Z,28.50
2018-03-06T19:22:24.152Z,29.25
2018-03-06T19:24:53.413Z,26.62
2018-03-06T19:27:22.079Z,27.80
2018-03-06T19:29:51.140Z,26.83
2018-03-06T19:32:20.160Z,26.25
2018-03-06T19:34:48.731Z,24.48
2018-03-06T19:37:17.197Z,23.60
2018-03-06T19:39:46.914Z,22.13
2018-03-06T19:42:15.952Z,23.38
2018-03-06T19:44:44.726Z,22.00
2018-03-06T19:47:13.417Z,24.30
2018-03-06T19:49:41.916Z,25.00
2018-03-06T19:52:10.399Z,25.75
2018-03-06T19:54:39.147Z,23.83
2018-03-06T19:57:08.960Z,23.60
2018-03-06T19:59:37.890Z,22.37
2018-03-06T20:02:06.910Z,21.92
2018-03-06T20:04:36.168Z,21.33
2018-03-06T20:07:06.443Z,23.60
2018-03-06T20:09:34.894Z,23.10
2018-03-06T20:12:03.440Z,23.55
2018-03-06T20:14:37.410Z,22.60
2018-03-06T20:17:06.670Z,22.13
2018-03-06T20:19:41.420Z,24.67
2018-03-06T20:22:10.053Z,23.08
2018-03-06T20:24:44.079Z,23.45
2018-03-06T20:27:12.660Z,23.45
2018-03-06T20:29:42.706Z,22.92
2018-03-06T20:32:16.996Z,22.67
2018-03-06T20:34:46.984Z,22.70
2018-03-06T20:37:16.480Z,23.98
2018-03-06T20:39:50.650Z,24.20
2018-03-06T20:42:19.285Z,23.50
2018-03-06T20:44:48.021Z,24.25
2018-03-06T20:47:22.142Z,24.08
2018-03-06T20:49:50.871Z,24.42
2018-03-06T20:52:19.250Z,24.45
2018-03-06T20:54:53.227Z,24.23
2018-03-06T20:57:21.938Z,23.33
2018-03-06T20:59:50.507Z,25.00
2018-03-06T21:02:19.189Z,24.95
2018-03-06T21:04:47.684Z,25.35
2018-03-06T21:07:16.388Z,25.80
2018-03-06T21:09:45.747Z,25.77
2018-03-06T21:12:14.292Z,26.87
2018-03-06T21:14:44.182Z,25.58
2018-03-06T21:17:13.108Z,25.50
2018-03-06T21:19:42.275Z,24.67
2018-03-06T21:22:14.292Z,27.70
2018-03-06T21:24:42.592Z,26.83
2018-03-06T21:27:10.891Z,26.62
2018-03-06T21:29:41.048Z,25.42
2018-03-06T21:32:10.205Z,24.60
2018-03-06T21:34:38.639Z,25.50
2018-03-06T21:37:07.216Z,23.75
2018-03-06T21:39:36.463Z,25.88
2018-03-06T21:42:05.026Z,24.55
2018-03-06T21:44:33.700Z,26.42
2018-03-06T21:47:02.159Z,25.83
2018-03-06T21:49:30.462Z,25.27
2018-03-06T21:51:59.190Z,28.20
2018-03-06T21:54:27.827Z,25.33
2018-03-06T21:56:56.747Z,25.00
2018-03-06T21:59:25.573Z,25.52
2018-03-06T22:01:54.841Z,25.92
2018-03-06T22:04:23.896Z,27.55
2018-03-06T22:06:53.666Z,26.20
2018-03-06T22:09:22.402Z,27.80
2018-03-06T22:11:51.960Z,28.42
2018-03-06T22:14:21.927Z,28.05
2018-03-06T22:16:51.069Z,27.27
2018-03-06T22:19:19.934Z,27.08
2018-03-06T22:21:48.347Z,26.98
2018-03-06T22:24:16.855Z,25.65
2018-03-06T22:26:45.300Z,25.75
2018-03-06T22:29:13.714Z,30.42
2018-03-06T22:31:42.164Z,27.08
2018-03-06T22:34:10.486Z,27.98
2018-03-06T22:36:38.984Z,28.75
2018-03-06T22:39:07.329Z,27.55
2018-03-06T22:41:35.809Z,27.60
2018-03-06T22:44:04.089Z,28.80
2018-03-06T22:46:33.302Z,29.50
2018-03-06T22:49:01.631Z,28.42
2018-03-06T22:51:29.931Z,25.98
2018-03-06T22:53:58.218Z,27.30
2018-03-06T22:56:26.769Z,27.30
2018-03-06T22:58:55.841Z,27.27
2018-03-06T23:01:25.232Z,26.10
2018-03-06T23:03:55.312Z,27.98
2018-03-06T23:06:25.933Z,28.00
2018-03-06T23:08:54.400Z,28.30
2018-03-06T23:11:23.651Z,28.50
2018-03-06T23:13:52.808Z,27.20
2018-03-06T23:16:21.869Z,29.40
2018-03-06T23:18:50.202Z,26.27
2018-03-06T23:21:18.622Z,27.85
2018-03-06T23:23:47.055Z,28.45
2018-03-06T23:26:15.408Z,27.58
2018-03-06T23:28:44.612Z,29.50
2018-03-06T23:31:13.541Z,31.58
2018-03-06T23:33:44.490Z,29.05
2018-03-06T23:36:12.828Z,28.70
2018-03-06T23:38:41.097Z,27.27
2018-03-06T23:41:11.962Z,27.95
2018-03-06T23:43:41.156Z,27.55
2018-03-06T23:46:10.142Z,27.98
2018-03-06T23:48:38.656Z,28.48
2018-03-06T23:51:07.888Z,28.38
2018-03-06T23:53:36.175Z,31.12
2018-03-06T23:56:05.047Z,31.52
2018-03-06T23:58:33.558Z,31.67
